Time;durP1;ratioP1;P1;durP2;ratioP2;P2;SDS_P1;SDS_P2;PMS_P1;PMS_P2;Temp;Humidity;BMP_temperature;BMP_pressure;BME280_temperature;BME280_humidity;BME280_pressure;Samples;Min_cycle;Max_cycle;Signal;HPM_P1;HPM_P2
2022/04/07 00:00:23;;;;;;;18.48;12.93;;;;;;;29.07;53.62;101023.75;5050660;28;69681;-37
2022/04/07 00:02:54;;;;;;;22.67;14.93;;;;;;;29.12;56.54;101029.38;5007972;28;66863;-34
2022/04/07 00:05:25;;;;;;;23.48;16.35;;;;;;;29.17;58.42;101032.28;5039796;28;70871;-35
2022/04/07 00:07:56;;;;;;;32.28;17.65;;;;;;;29.26;58.65;101025.66;5040641;28;66175;-34
2022/04/07 00:10:27;;;;;;;29.17;17.75;;;;;;;29.32;59.86;101032.91;5041162;28;70697;-33
2022/04/07 00:12:58;;;;;;;33.25;18.92;;;;;;;29.42;59.41;101032.53;5041837;28;66625;-34
2022/04/07 00:15:30;;;;;;;28.77;19.35;;;;;;;29.43;61.67;101036.06;5047466;28;70085;-35
2022/04/07 00:18:02;;;;;;;33.42;19.40;;;;;;;29.39;60.56;101043.72;5030614;28;65745;-33
2022/04/07 00:20:34;;;;;;;43.17;20.98;;;;;;;29.27;59.79;101042.69;5044838;28;70378;-33
2022/04/07 00:23:06;;;;;;;48.00;22.40;;;;;;;29.20;60.37;101056.19;5040266;28;67225;-33
2022/04/07 00:25:37;;;;;;;41.35;22.90;;;;;;;29.11;61.06;101055.56;5048001;28;70665;-32
2022/04/07 00:28:08;;;;;;;33.55;22.23;;;;;;;29.05;60.68;101056.34;5060993;28;65966;-33
2022/04/07 00:30:39;;;;;;;38.33;23.85;;;;;;;28.90;61.44;101051.09;5047174;28;70368;-33
2022/04/07 00:33:10;;;;;;;51.38;23.08;;;;;;;28.95;61.05;101066.69;5055379;28;65733;-34
2022/04/07 00:35:41;;;;;;;47.10;24.08;;;;;;;28.90;61.70;101078.09;5057403;28;69786;-34
2022/04/07 00:38:12;;;;;;;35.25;22.63;;;;;;;28.91;61.20;101087.84;5021823;28;64853;-33
2022/04/07 00:40:43;;;;;;;44.13;23.60;;;;;;;28.93;61.79;101085.78;5049778;28;69469;-33
2022/04/07 00:43:34;;;;;;;41.15;24.02;;;;;;;28.92;61.47;101089.53;5049892;28;66275;-34
2022/04/07 00:46:05;;;;;;;35.17;20.00;;;;;;;29.22;59.13;101091.09;5050439;28;70224;-33
2022/04/07 00:48:36;;;;;;;34.63;18.52;;;;;;;29.36;58.23;101088.22;5044579;27;66415;-33
2022/04/07 00:51:07;;;;;;;30.75;17.50;;;;;;;29.40;57.64;101081.38;5051965;28;71794;-33
2022/04/07 00:53:38;;;;;;;32.10;17.80;;;;;;;29.61;57.53;101101.13;5040295;28;66269;-34
2022/04/07 00:56:10;;;;;;;35.83;19.10;;;;;;;29.66;57.41;101095.97;5042088;28;69553;-34
2022/04/07 00:58:41;;;;;;;33.92;18.48;;;;;;;29.76;57.76;101101.81;5060987;28;65709;-34
2022/04/07 01:01:13;;;;;;;;;;;;;;;29.47;59.97;101099.47;5059444;28;70164;-34
2022/04/07 01:03:43;;;;;;;30.30;16.08;;;;;;;29.85;57.85;101099.72;5057939;28;66855;-33
2022/04/07 01:06:14;;;;;;;30.23;17.88;;;;;;;29.94;57.31;101103.06;5059703;28;70099;-34
2022/04/07 01:08:45;;;;;;;27.95;18.35;;;;;;;30.03;57.56;101101.78;5060536;28;66620;-34
2022/04/07 01:11:16;;;;;;;31.53;16.27;;;;;;;30.07;57.39;101108.47;5059446;28;69797;-33
2022/04/07 01:13:52;;;;;;;34.55;18.60;;;;;;;30.15;57.63;101105.53;5059038;28;65378;-34
2022/04/07 01:16:28;;;;;;;24.92;16.35;;;;;;;29.75;56.88;101027.13;5058576;28;69441;-34
2022/04/07 01:18:59;;;;;;;35.65;18.90;;;;;;;30.24;57.41;101108.88;5060222;28;65445;-33
2022/04/07 01:21:33;;;;;;;27.30;16.73;;;;;;;30.26;56.90;101102.22;5060463;28;70015;-34
2022/04/07 01:24:09;;;;;;;23.90;17.48;;;;;;;30.32;57.19;101102.44;5057467;28;66315;-34
2022/04/07 01:26:41;;;;;;;31.35;17.58;;;;;;;30.34;56.92;101098.47;5059637;28;70058;-34
2022/04/07 01:29:19;;;;;;;26.55;17.60;;;;;;;30.11;57.29;101044.75;5058701;28;65500;-34
2022/04/07 01:31:49;;;;;;;33.55;18.27;;;;;;;30.43;57.29;101101.78;5041991;28;70029;-34
2022/04/07 01:34:21;;;;;;;33.88;18.35;;;;;;;30.43;57.19;101099.06;5060842;28;65647;-34
2022/04/07 01:36:54;;;;;;;28.45;18.10;;;;;;;30.44;57.18;101093.44;5058411;28;70302;-33
2022/04/07 01:39:27;;;;;;;21.23;17.42;;;;;;;30.49;57.07;101099.03;5039484;28;65492;-33
2022/04/07 01:41:57;;;;;;;29.55;17.80;;;;;;;30.56;56.71;101107.13;5039308;28;70425;-34
2022/04/07 01:44:30;;;;;;;24.38;18.58;;;;;;;30.06;56.50;101020.22;5055599;28;66380;-34
2022/04/07 01:47:17;;;;;;;22.58;17.67;;;;;;;29.73;56.95;100958.94;5057609;28;70137;-34
2022/04/07 01:50:09;;;;;;;27.45;19.30;;;;;;;30.54;57.20;101097.59;5058195;28;66657;-34
2022/04/07 01:52:42;;;;;;;32.30;18.33;;;;;;;30.65;56.81;101095.03;5060515;28;43060;-34
2022/04/07 01:55:15;;;;;;;29.70;18.95;;;;;;;30.25;56.41;101013.13;5058268;28;67827;-33
2022/04/07 01:57:47;;;;;;;27.98;17.65;;;;;;;30.72;57.04;101093.13;5057337;28;70092;-34
2022/04/07 02:00:18;;;;;;;29.55;18.27;;;;;;;30.72;56.72;101085.00;5058182;28;66006;-34
2022/04/07 02:02:49;;;;;;;28.70;19.58;;;;;;;30.74;56.84;101084.81;5041056;28;70122;-34
2022/04/07 02:05:20;;;;;;;27.52;19.67;;;;;;;30.80;57.28;101096.69;5058868;28;66091;-34
2022/04/07 02:07:51;;;;;;;28.73;19.08;;;;;;;30.82;56.82;101089.19;5056922;28;69592;-33
2022/04/07 02:10:23;;;;;;;28.33;19.45;;;;;;;30.85;56.82;101089.56;5060330;28;66231;-33
2022/04/07 02:12:56;;;;;;;33.85;20.02;;;;;;;30.81;57.19;101082.09;5058361;28;70208;-34
2022/04/07 02:15:27;;;;;;;24.35;18.85;;;;;;;30.91;56.88;101088.72;5058125;28;66271;-33
2022/04/07 02:17:57;;;;;;;29.65;19.13;;;;;;;30.84;57.16;101062.69;5059333;28;70392;-33
2022/04/07 02:20:28;;;;;;;29.02;19.23;;;;;;;30.92;56.91;101074.13;5059416;28;65552;-34
2022/04/07 02:22:59;;;;;;;33.80;19.55;;;;;;;31.00;57.07;101077.63;5058602;28;69853;-34
2022/04/07 02:25:30;;;;;;;28.77;19.53;;;;;;;31.01;56.63;101082.84;5057979;28;65382;-33
2022/04/07 02:28:01;;;;;;;28.08;18.52;;;;;;;31.03;56.83;101074.47;5059589;28;70056;-33
2022/04/07 02:30:32;;;;;;;28.10;18.48;;;;;;;31.06;56.33;101072.16;5058501;28;67455;-33
2022/04/07 02:33:03;;;;;;;34.25;19.48;;;;;;;31.09;57.01;101079.88;5059669;28;69893;-33
2022/04/07 02:35:33;;;;;;;22.98;17.65;;;;;;;31.11;56.37;101077.75;5059220;28;66449;-33
2022/04/07 02:38:04;;;;;;;23.98;18.73;;;;;;;31.14;56.48;101082.75;5057895;28;71533;-34
2022/04/07 02:40:47;;;;;;;26.17;18.52;;;;;;;31.16;56.50;101080.66;5057179;28;66533;-34
2022/04/07 02:43:18;;;;;;;26.58;18.63;;;;;;;31.20;56.34;101074.78;5065016;28;69943;-33
2022/04/07 02:45:49;;;;;;;25.02;18.05;;;;;;;31.12;56.30;101052.34;5079240;27;66512;-33
2022/04/07 02:48:29;;;;;;;28.83;17.90;;;;;;;31.25;56.60;101066.84;5077937;27;69596;-33
2022/04/07 02:51:01;;;;;;;27.08;18.27;;;;;;;31.26;56.22;101063.06;5079326;27;66360;-33
2022/04/07 02:53:31;;;;;;;;;;;;;;;30.97;57.72;101069.94;5078644;27;70021;-34
2022/04/07 02:56:02;;;;;;;23.83;17.73;;;;;;;31.27;56.32;101064.75;5080299;27;66883;-34
2022/04/07 02:58:33;;;;;;;26.52;17.05;;;;;;;31.32;56.32;101067.66;5062683;28;71203;-34
2022/04/07 03:01:20;;;;;;;27.27;17.83;;;;;;;31.35;56.41;101061.78;5062193;28;66054;-33
2022/04/07 03:03:55;;;;;;;19.65;17.48;;;;;;;31.35;56.06;101056.38;5062872;28;69993;-34
2022/04/07 03:06:26;;;;;;;26.52;16.13;;;;;;;31.43;55.93;101061.56;5062560;28;66300;-34
2022/04/07 03:09:21;;;;;;;25.90;16.73;;;;;;;31.44;55.80;101055.06;5060989;28;70157;-33
2022/04/07 03:11:52;;;;;;;29.88;16.95;;;;;;;31.44;56.22;101055.06;5061620;28;66677;-34
2022/04/07 03:14:26;;;;;;;26.75;16.98;;;;;;;31.50;55.78;101054.19;5061920;28;71195;-33
2022/04/07 03:16:58;;;;;;;22.88;15.18;;;;;;;31.55;55.59;101050.81;5055902;28;65656;-34
2022/04/07 03:19:29;;;;;;;21.02;15.68;;;;;;;31.55;55.66;101046.22;5060832;28;70057;-34
2022/04/07 03:22:00;;;;;;;21.38;15.73;;;;;;;31.60;55.92;101045.56;5060140;28;65474;-33
2022/04/07 03:24:31;;;;;;;19.90;15.90;;;;;;;31.60;55.52;101038.25;5062675;27;69506;-34
2022/04/07 03:27:07;;;;;;;18.92;15.30;;;;;;;31.65;55.64;101042.16;5060545;28;66541;-33
2022/04/07 03:29:38;;;;;;;18.50;14.80;;;;;;;31.64;55.67;101041.34;5061053;28;70385;-33
2022/04/07 03:32:09;;;;;;;19.10;14.98;;;;;;;31.72;56.14;101034.81;5059262;28;65478;-34
2022/04/07 03:34:40;;;;;;;20.25;14.93;;;;;;;31.74;56.18;101032.72;5060615;28;71170;-34
2022/04/07 03:37:11;;;;;;;20.73;15.02;;;;;;;31.73;55.91;101020.19;5060762;28;66185;-34
2022/04/07 03:39:42;;;;;;;18.58;15.55;;;;;;;31.78;56.13;101032.03;5041761;28;71700;-34
2022/04/07 03:42:13;;;;;;;17.33;14.98;;;;;;;31.80;55.58;101026.41;5039445;28;66637;-33
2022/04/07 03:44:46;;;;;;;20.02;15.02;;;;;;;31.82;55.71;101021.59;5052361;28;70093;-34
2022/04/07 03:47:17;;;;;;;24.27;14.88;;;;;;;31.87;55.93;101015.47;5041581;28;66147;-34
2022/04/07 03:49:48;;;;;;;18.85;15.00;;;;;;;31.87;55.71;101010.88;5040956;28;70076;-34
2022/04/07 03:52:19;;;;;;;23.95;15.55;;;;;;;31.88;55.49;101012.56;5038471;28;66604;-34
2022/04/07 03:54:50;;;;;;;16.38;14.70;;;;;;;31.93;55.53;101007.31;5040647;28;69861;-34
2022/04/07 03:57:21;;;;;;;22.67;15.50;;;;;;;31.94;55.83;101005.44;5053285;28;64990;-33
2022/04/07 03:59:52;;;;;;;16.88;14.75;;;;;;;31.92;55.27;101002.94;5061486;28;70487;-34
2022/04/07 04:02:22;;;;;;;19.43;13.83;;;;;;;31.93;55.45;100984.75;5058242;28;65240;-34
2022/04/07 04:04:56;;;;;;;19.05;14.25;;;;;;;32.01;55.49;100995.31;5060250;28;69790;-34
2022/04/07 04:07:28;;;;;;;22.30;14.65;;;;;;;32.02;55.75;100992.41;5027313;28;66013;-34
2022/04/07 04:09:58;;;;;;;24.00;15.10;;;;;;;31.91;55.38;100974.16;5059094;28;69328;-34
2022/04/07 04:12:29;;;;;;;22.15;15.52;;;;;;;32.06;55.25;100987.34;5060113;28;66662;-34
2022/04/07 04:15:01;;;;;;;21.20;15.20;;;;;;;32.05;55.34;100991.94;5060146;28;70127;-35
2022/04/07 04:17:32;;;;;;;19.50;15.55;;;;;;;31.98;55.52;100966.78;5060427;28;65222;-34
2022/04/07 04:20:06;;;;;;;17.90;14.60;;;;;;;32.08;55.53;100973.56;5059472;28;69085;-33
2022/04/07 04:22:51;;;;;;;21.00;14.68;;;;;;;32.14;55.59;100983.50;5058470;28;65272;-35
2022/04/07 04:25:34;;;;;;;20.20;14.68;;;;;;;32.14;55.07;100975.34;5061634;28;69593;-33
2022/04/07 04:28:08;;;;;;;18.80;14.75;;;;;;;32.18;55.35;100968.41;5059335;28;66243;-33
2022/04/07 04:30:39;;;;;;;22.38;14.77;;;;;;;32.17;55.06;100967.59;5060337;28;70268;-34
2022/04/07 04:33:10;;;;;;;18.90;15.38;;;;;;;32.19;55.04;100959.22;5059903;28;65751;-33
2022/04/07 04:35:41;;;;;;;18.92;14.70;;;;;;;32.19;55.35;100960.06;5058993;28;70388;-33
2022/04/07 04:38:12;;;;;;;26.42;15.20;;;;;;;32.21;55.07;100962.56;5059903;28;66612;-34
2022/04/07 04:40:43;;;;;;;20.92;15.05;;;;;;;32.26;55.13;100955.38;5060069;28;69525;-32
2022/04/07 04:43:13;;;;;;;24.13;14.82;;;;;;;32.23;55.02;100949.56;5059529;28;66581;-34
2022/04/07 04:45:44;;;;;;;19.25;15.38;;;;;;;32.29;54.94;100948.66;5060767;28;68996;-35
2022/04/07 04:48:15;;;;;;;24.55;15.32;;;;;;;32.17;54.91;100913.31;5060720;28;65755;-35
2022/04/07 04:50:46;;;;;;;20.75;14.95;;;;;;;32.33;55.25;100940.88;5060473;28;70605;-34
2022/04/07 04:53:18;;;;;;;18.20;14.80;;;;;;;32.33;55.10;100932.75;5058730;28;66257;-33
2022/04/07 04:55:49;;;;;;;21.75;14.98;;;;;;;32.35;55.24;100925.22;5058271;28;69846;-37
2022/04/07 04:58:20;;;;;;;23.38;15.70;;;;;;;32.36;55.27;100924.13;5040575;28;66512;-34
2022/04/07 05:00:51;;;;;;;15.65;13.77;;;;;;;32.37;55.09;100913.03;5040669;28;70320;-34
2022/04/07 05:03:22;;;;;;;19.40;14.90;;;;;;;32.38;55.17;100903.84;5038740;28;66704;-34
2022/04/07 05:05:52;;;;;;;20.85;14.88;;;;;;;32.40;54.87;100915.31;5039279;28;69256;-34
2022/04/07 05:08:23;;;;;;;22.95;15.43;;;;;;;32.40;54.97;100901.75;5022491;28;65374;-34
2022/04/07 05:10:54;;;;;;;20.58;14.18;;;;;;;32.33;55.13;100879.28;5021878;28;69894;-33
2022/04/07 05:13:25;;;;;;;24.00;14.70;;;;;;;32.39;54.82;100891.91;5039472;28;66028;-34
2022/04/07 05:15:56;;;;;;;26.50;15.10;;;;;;;32.36;55.00;100878.81;5038635;28;69907;-34
2022/04/07 05:18:27;;;;;;;23.15;14.80;;;;;;;32.38;54.91;100871.28;5036572;28;65477;-33
2022/04/07 05:20:58;;;;;;;23.13;14.75;;;;;;;32.29;54.95;100842.81;5038624;28;69220;-35
2022/04/07 05:23:30;;;;;;;20.90;15.20;;;;;;;32.49;54.64;100873.22;5037624;28;66262;-34
2022/04/07 05:26:01;;;;;;;;;;;;;;;32.21;55.60;100859.41;5038737;28;69754;-34
2022/04/07 05:28:36;;;;;;;17.02;13.15;;;;;;;32.46;55.00;100851.97;5038541;28;66573;-34
2022/04/07 05:31:07;;;;;;;19.67;13.43;;;;;;;32.55;54.75;100854.34;5039462;28;69330;-34
2022/04/07 05:33:39;;;;;;;;;;;;;;;32.27;55.62;100850.34;5040250;28;66233;-34
2022/04/07 05:36:10;;;;;;;20.58;13.60;;;;;;;32.53;55.11;100829.31;5039967;28;69989;-33
2022/04/07 05:38:40;;;;;;;24.42;14.95;;;;;;;32.60;55.16;100830.06;5038647;28;66742;-33
2022/04/07 05:41:11;;;;;;;18.55;14.48;;;;;;;32.59;55.00;100818.34;5040012;28;69728;-34
2022/04/07 05:43:41;;;;;;;15.25;13.65;;;;;;;32.57;54.54;100806.91;5060740;28;66329;-33
2022/04/07 05:46:12;;;;;;;15.57;13.82;;;;;;;32.70;54.83;100814.00;5077670;28;70056;-33
2022/04/07 05:48:43;;;;;;;16.10;14.07;;;;;;;32.71;54.98;100804.81;5078968;28;66212;-33
2022/04/07 05:51:17;;;;;;;14.55;13.02;;;;;;;32.65;54.61;100781.28;5079138;28;69786;-33
2022/04/07 05:53:47;;;;;;;16.15;14.25;;;;;;;32.76;54.85;100785.88;5077520;28;66143;-33
2022/04/07 05:56:19;;;;;;;19.35;13.32;;;;;;;32.75;54.77;100784.25;5077023;27;69714;-33
2022/04/07 05:58:49;;;;;;;19.35;13.75;;;;;;;32.78;54.65;100772.91;5059058;28;66357;-35
2022/04/07 06:01:20;;;;;;;17.67;13.38;;;;;;;32.82;54.35;100768.66;5058683;28;71125;-33
2022/04/07 06:03:50;;;;;;;17.90;13.48;;;;;;;32.83;54.28;100767.59;5058212;28;65375;-34
2022/04/07 06:06:21;;;;;;;21.98;13.13;;;;;;;32.82;54.44;100755.06;5058886;28;69321;-34
2022/04/07 06:08:52;;;;;;;15.23;13.68;;;;;;;32.88;54.43;100745.97;5041374;28;66996;-34
2022/04/07 06:11:23;;;;;;;17.10;13.68;;;;;;;32.89;54.52;100747.63;5059637;28;68904;-34
2022/04/07 06:13:53;;;;;;;19.42;13.50;;;;;;;32.90;54.35;100738.41;5058962;28;65393;-35
2022/04/07 06:16:24;;;;;;;18.58;12.27;;;;;;;32.89;54.24;100731.31;5059043;28;69907;-34
2022/04/07 06:19:02;;;;;;;19.45;13.60;;;;;;;32.96;54.41;100735.78;5058906;28;65411;-33
2022/04/07 06:21:33;;;;;;;16.75;12.88;;;;;;;32.98;54.30;100723.63;5057774;28;69769;-34
2022/04/07 06:24:04;;;;;;;17.13;12.77;;;;;;;32.99;54.41;100724.44;5059729;28;66548;-34
2022/04/07 06:26:38;;;;;;;14.43;12.77;;;;;;;33.05;54.38;100718.09;5057709;28;70100;-33
2022/04/07 06:29:08;;;;;;;13.57;12.32;;;;;;;32.81;54.27;100679.25;5060080;28;66563;-34
2022/04/07 06:31:39;;;;;;;16.73;11.93;;;;;;;33.02;54.22;100705.81;5051273;28;69263;-34
2022/04/07 06:34:22;;;;;;;17.48;13.45;;;;;;;33.11;53.98;100711.72;5054235;28;66430;-34
2022/04/07 06:36:52;;;;;;;13.60;12.02;;;;;;;33.13;53.84;100709.59;5040992;28;69972;-34
2022/04/07 06:39:23;;;;;;;14.30;12.13;;;;;;;33.18;54.01;100711.56;5056911;28;66454;-35
2022/04/07 06:41:55;;;;;;;12.95;11.65;;;;;;;33.19;54.06;100705.91;5044209;28;69731;-34
2022/04/07 06:44:26;;;;;;;14.53;12.43;;;;;;;33.22;53.99;100697.25;5079800;27;66161;-33
2022/04/07 06:46:57;;;;;;;14.53;12.60;;;;;;;33.23;53.92;100693.47;5055291;28;70207;-33
2022/04/07 06:49:28;;;;;;;18.60;12.52;;;;;;;33.27;53.94;100694.66;5041372;28;66478;-33
2022/04/07 06:52:03;;;;;;;16.95;12.05;;;;;;;33.33;53.86;100688.25;5057813;28;70273;-35
2022/04/07 06:54:35;;;;;;;16.80;12.32;;;;;;;33.36;53.79;100687.75;5041092;28;64548;-33
2022/04/07 06:57:07;;;;;;;12.77;11.43;;;;;;;33.41;53.58;100683.50;5024585;28;70403;-33
2022/04/07 06:59:38;;;;;;;12.43;11.00;;;;;;;33.44;53.60;100675.69;5042687;28;65527;-33
2022/04/07 07:02:09;;;;;;;13.70;11.55;;;;;;;33.51;53.55;100683.69;5041028;28;69240;-34
2022/04/07 07:04:40;;;;;;;13.27;11.63;;;;;;;33.54;53.47;100677.78;5041847;28;66512;-34
2022/04/07 07:07:11;;;;;;;12.75;11.43;;;;;;;33.33;53.39;100635.78;5042219;28;69562;-34
2022/04/07 07:09:42;;;;;;;13.35;11.43;;;;;;;33.48;53.36;100659.69;5041070;28;65760;-34
2022/04/07 07:12:12;;;;;;;18.23;11.55;;;;;;;33.60;53.42;100671.38;5040930;28;69918;-34
2022/04/07 07:14:43;;;;;;;16.83;11.25;;;;;;;33.61;53.06;100677.66;5042506;28;66140;-33
2022/04/07 07:17:14;;;;;;;14.25;10.73;;;;;;;33.62;53.17;100669.22;5040453;28;70367;-33
2022/04/07 07:19:44;;;;;;;14.18;10.98;;;;;;;33.67;53.16;100672.06;5042200;28;66256;-34
2022/04/07 07:22:15;;;;;;;15.82;11.23;;;;;;;33.68;53.09;100665.53;5024903;28;69913;-34
2022/04/07 07:24:46;;;;;;;12.13;10.90;;;;;;;33.68;53.12;100665.53;5040951;28;67362;-34
2022/04/07 07:27:17;;;;;;;18.67;10.63;;;;;;;33.67;52.75;100658.44;5042703;28;70223;-34
2022/04/07 07:29:48;;;;;;;13.18;11.00;;;;;;;33.72;53.08;100658.53;5040479;28;65635;-34
2022/04/07 07:32:18;;;;;;;14.32;10.68;;;;;;;33.73;52.92;100654.75;5041740;28;70249;-35
2022/04/07 07:34:49;;;;;;;12.40;11.02;;;;;;;33.72;53.05;100644.94;5041341;28;66387;-34
2022/04/07 07:37:20;;;;;;;12.13;10.88;;;;;;;33.79;53.02;100637.47;5042598;28;70266;-34
2022/04/07 07:39:51;;;;;;;14.18;10.60;;;;;;;33.83;52.98;100636.97;5040279;28;65964;-35
2022/04/07 07:42:22;;;;;;;11.75;10.68;;;;;;;33.84;52.72;100641.31;5042574;28;69325;-34
2022/04/07 07:44:54;;;;;;;11.65;10.55;;;;;;;33.88;52.37;100629.72;5040211;28;66184;-36
2022/04/07 07:47:24;;;;;;;16.20;10.98;;;;;;;33.72;52.86;100608.75;5042237;28;69640;-35
2022/04/07 07:49:57;;;;;;;11.23;9.98;;;;;;;33.94;52.64;100633.34;5041808;28;65329;-34
2022/04/07 07:52:28;;;;;;;9.98;9.13;;;;;;;33.97;52.49;100632.84;5021650;28;69759;-34
2022/04/07 07:54:59;;;;;;;16.10;11.07;;;;;;;33.98;52.48;100629.84;5040446;28;66709;-35
2022/04/07 07:57:30;;;;;;;11.05;9.95;;;;;;;33.95;52.45;100624.09;5041449;28;68998;-34
2022/04/07 08:46:35;;;;;;;12.55;8.80;;;;;;;33.72;53.70;100627.81;5134122;27;44751;-36
2022/04/07 08:49:21;;;;;;;9.75;9.00;;;;;;;33.46;53.68;100591.97;5128861;27;70297;-35
2022/04/07 08:51:53;;;;;;;9.88;8.85;;;;;;;33.85;53.22;100641.09;5126661;27;66407;-35
2022/04/07 08:54:34;;;;;;;9.23;8.40;;;;;;;33.58;53.17;100587.31;5122221;27;70417;-36
2022/04/07 08:57:16;;;;;;;9.30;8.57;;;;;;;33.89;53.02;100627.81;5128267;27;65631;-35
2022/04/07 08:59:47;;;;;;;9.80;9.00;;;;;;;33.96;52.98;100628.44;5135721;27;69859;-37
2022/04/07 09:02:18;;;;;;;9.77;8.23;;;;;;;34.03;52.93;100634.56;5115554;27;66602;-36
2022/04/07 09:04:49;;;;;;;9.40;8.50;;;;;;;34.07;52.64;100633.00;5116907;27;70159;-36
2022/04/07 09:07:22;;;;;;;9.77;8.50;;;;;;;34.10;52.49;100637.16;5124983;27;66464;-36
2022/04/07 09:10:01;;;;;;;15.07;9.80;;;;;;;33.71;52.59;100564.41;5120263;27;70447;-36
2022/04/07 09:12:34;;;;;;;9.55;8.55;;;;;;;34.16;52.40;100631.53;5130677;27;65582;-35
2022/04/07 09:15:05;;;;;;;9.25;8.35;;;;;;;34.14;52.42;100625.53;5134764;27;69928;-35
2022/04/07 09:17:53;;;;;;;9.52;7.72;;;;;;;34.09;52.16;100633.59;5127926;27;65187;-35
2022/04/07 09:20:24;;;;;;;11.43;8.20;;;;;;;34.21;52.05;100645.25;5125136;27;70118;-36
2022/04/07 09:22:59;;;;;;;8.43;7.75;;;;;;;33.89;51.41;100590.53;5122367;27;66041;-36
2022/04/07 09:25:30;;;;;;;10.63;8.85;;;;;;;34.22;51.89;100636.00;5125584;27;69431;-36
2022/04/07 09:28:01;;;;;;;11.45;8.73;;;;;;;34.21;52.02;100631.63;5142594;27;66747;-35
2022/04/07 09:30:38;;;;;;;17.55;8.32;;;;;;;34.12;51.69;100627.66;5128769;27;69810;-36
2022/04/07 09:33:29;;;;;;;8.95;8.35;;;;;;;34.15;51.79;100640.78;5123305;27;66609;-36
2022/04/07 09:36:07;;;;;;;9.87;8.97;;;;;;;34.21;51.63;100650.69;5135773;27;70018;-37
2022/04/07 09:38:39;;;;;;;8.52;7.72;;;;;;;34.13;51.65;100626.59;5115115;27;66308;-36
2022/04/07 09:41:14;;;;;;;8.63;7.80;;;;;;;34.20;51.27;100649.03;5118323;27;69186;-36
2022/04/07 09:43:58;;;;;;;9.43;8.50;;;;;;;33.83;51.53;100593.44;5131602;27;65382;-37
2022/04/07 09:46:38;;;;;;;9.13;8.30;;;;;;;33.81;51.64;100589.03;5116281;27;70550;-37
2022/04/07 09:49:13;;;;;;;10.40;7.55;;;;;;;33.50;51.67;100537.91;5114383;27;66485;-36
2022/04/07 09:51:46;;;;;;;8.45;7.55;;;;;;;34.17;51.89;100652.25;5101989;27;70113;-36
2022/04/07 09:54:18;;;;;;;13.43;8.60;;;;;;;34.09;51.84;100641.78;5114705;27;65695;-36
2022/04/07 09:56:49;;;;;;;8.25;7.55;;;;;;;34.18;51.85;100656.59;5119773;27;69706;-35
2022/04/07 09:59:21;;;;;;;9.38;8.27;;;;;;;34.15;51.82;100673.44;5122262;27;66159;-36
2022/04/07 10:01:52;;;;;;;;;;;;;;;33.85;52.25;100670.16;5113803;27;69549;-36
2022/04/07 10:04:24;;;;;;;8.13;7.50;;;;;;;34.09;51.74;100663.53;5112205;27;66792;-36
2022/04/07 10:06:56;;;;;;;11.20;7.32;;;;;;;33.61;51.40;100586.00;5122843;27;69459;-36
2022/04/07 10:09:27;;;;;;;8.65;7.85;;;;;;;34.14;51.78;100674.50;5138902;27;66250;-36
2022/04/07 10:12:01;;;;;;;10.73;8.38;;;;;;;34.12;51.77;100682.09;5121978;27;69604;-36
2022/04/07 10:14:34;;;;;;;9.02;7.70;;;;;;;34.13;51.82;100675.59;5117286;27;66990;-37
2022/04/07 10:17:09;;;;;;;8.77;7.88;;;;;;;34.13;51.48;100685.63;5100612;27;70104;-36
2022/04/07 10:20:00;;;;;;;10.13;7.80;;;;;;;33.35;51.81;100582.81;5119019;27;66293;-35
2022/04/07 10:22:50;;;;;;;8.65;7.88;;;;;;;33.75;51.72;100640.91;5101138;27;70663;-38
2022/04/07 10:25:30;;;;;;;8.30;7.60;;;;;;;34.09;51.83;100695.38;5122487;27;66476;-36
2022/04/07 10:28:04;;;;;;;9.25;8.45;;;;;;;34.11;51.85;100699.50;5110452;27;70232;-37
2022/04/07 10:30:51;;;;;;;16.25;11.48;;;;;;;33.73;53.95;100695.56;5113440;27;66253;-36
2022/04/07 10:33:41;;;;;;;26.98;15.20;;;;;;;33.31;56.19;100703.97;5111752;27;69392;-35
2022/04/07 10:36:18;;;;;;;28.90;17.13;;;;;;;32.80;56.95;100645.81;5108644;27;66417;-35
2022/04/07 10:38:51;;;;;;;37.30;18.83;;;;;;;32.61;57.56;100652.47;5111722;27;69399;-34
2022/04/07 10:41:36;;;;;;;33.38;18.70;;;;;;;32.86;58.10;100712.78;5104026;27;65534;-35
2022/04/07 10:44:26;;;;;;;45.17;20.13;;;;;;;32.64;58.84;100695.44;5115900;27;69581;-39
2022/04/07 10:47:05;;;;;;;42.95;19.65;;;;;;;32.43;59.71;100662.38;5114217;27;67156;-38
2022/04/07 10:49:35;;;;;;;30.13;18.98;;;;;;;32.73;60.26;100710.31;5104230;27;69073;-37
2022/04/07 10:52:07;;;;;;;33.08;18.67;;;;;;;32.71;60.21;100712.44;5105599;27;66905;-36
2022/04/07 10:55:11;;;;;;;44.53;18.70;;;;;;;32.59;60.82;100725.19;5101265;27;69534;-36
2022/04/07 10:58:20;;;;;;;32.85;19.25;;;;;;;32.47;61.55;100723.28;5099637;27;66432;-36
2022/04/07 11:00:51;;;;;;;39.90;21.40;;;;;;;32.59;61.54;100725.19;5073780;28;69614;-36
2022/04/07 11:03:22;;;;;;;42.90;23.07;;;;;;;32.55;62.01;100724.03;5075750;28;66936;-36
2022/04/07 11:05:58;;;;;;;60.47;25.67;;;;;;;32.58;62.24;100739.84;5084991;27;69943;-36
2022/04/07 11:08:30;;;;;;;57.45;24.63;;;;;;;32.46;62.37;100718.94;5114590;27;65151;-36
2022/04/07 11:11:00;;;;;;;;;;;;;;;32.27;63.28;100744.50;5105768;27;69365;-36
2022/04/07 11:13:59;;;;;;;45.40;23.30;;;;;;;32.40;62.62;100744.28;5108935;27;66012;-37
2022/04/07 11:16:36;;;;;;;38.95;25.60;;;;;;;32.49;62.84;100745.63;5111470;27;70103;-36
2022/04/07 11:19:23;;;;;;;43.72;27.17;;;;;;;32.43;62.74;100749.25;5101140;27;66549;-36
2022/04/07 11:22:07;;;;;;;60.08;29.45;;;;;;;32.05;63.46;100692.66;5106833;27;69600;-36
2022/04/07 11:24:55;;;;;;;46.33;26.70;;;;;;;32.35;63.56;100738.72;5108865;27;65450;-36
2022/04/07 11:27:39;;;;;;;46.08;27.63;;;;;;;32.25;63.67;100719.47;5109399;27;69359;-36
2022/04/07 11:30:11;;;;;;;51.35;28.63;;;;;;;32.41;64.42;100751.34;5107633;27;66677;-36
2022/04/07 11:33:25;;;;;;;46.75;27.58;;;;;;;32.37;64.78;100752.88;5102024;27;69365;-36
2022/04/07 11:36:04;;;;;;;32.97;23.83;;;;;;;32.44;64.77;100750.06;5104285;27;66104;-36
2022/04/07 11:38:47;;;;;;;41.45;24.25;;;;;;;32.37;65.72;100750.16;5104349;27;70624;-36
2022/04/07 11:41:19;;;;;;;49.30;32.08;;;;;;;32.22;65.44;100737.03;5103467;27;66370;-35
2022/04/07 11:43:52;;;;;;;57.67;33.13;;;;;;;32.42;65.53;100757.59;5098676;27;69668;-36
2022/04/07 11:46:30;;;;;;;56.05;31.10;;;;;;;32.41;66.08;100767.66;5103339;27;66520;-36
2022/04/07 11:49:04;;;;;;;38.45;26.75;;;;;;;32.43;66.37;100770.97;5101152;27;69833;-36
2022/04/07 11:51:36;;;;;;;52.75;33.30;;;;;;;32.44;66.11;100777.22;5105390;27;65529;-37
2022/04/07 11:54:07;;;;;;;51.25;31.20;;;;;;;32.36;66.46;100780.25;5104122;27;71068;-37
2022/04/07 11:56:39;;;;;;;49.17;29.05;;;;;;;32.22;66.91;100783.19;5100848;27;67399;-37
2022/04/07 11:59:10;;;;;;;;;;;;;;;32.00;68.27;100788.28;5102644;27;69274;-35
2022/04/07 12:01:44;;;;;;;39.83;26.00;;;;;;;32.23;67.36;100797.56;5103820;27;66141;-37
2022/04/07 12:04:15;;;;;;;40.63;23.55;;;;;;;32.19;67.42;100790.97;5101362;27;69458;-35
2022/04/07 12:06:52;;;;;;;47.53;23.70;;;;;;;32.19;67.40;100796.38;5103235;27;66393;-36
2022/04/07 12:09:23;;;;;;;52.28;23.33;;;;;;;32.23;67.58;100800.28;5102736;27;69268;-37
2022/04/07 12:11:55;;;;;;;40.33;22.00;;;;;;;32.12;67.53;100796.47;5089022;27;65022;-36
2022/04/07 12:14:36;;;;;;;30.45;20.73;;;;;;;32.25;67.38;100823.41;5114949;27;69798;-36
2022/04/07 12:17:09;;;;;;;38.83;22.33;;;;;;;32.22;67.50;100828.50;5103875;27;66407;-38
2022/04/07 12:19:47;;;;;;;47.17;22.30;;;;;;;32.25;67.38;100838.88;5115390;27;68574;-35
2022/04/07 12:22:30;;;;;;;52.72;24.95;;;;;;;32.20;67.85;100836.03;5110044;27;65929;-39
2022/04/07 12:25:04;;;;;;;35.75;19.63;;;;;;;32.19;68.00;100823.53;5114101;27;70059;-40
2022/04/07 12:27:35;;;;;;;41.38;20.27;;;;;;;32.33;68.35;100837.75;5089193;27;66244;-39
2022/04/07 12:30:09;;;;;;;29.27;18.47;;;;;;;32.38;67.66;100844.13;5103515;27;70220;-38